createdAt,value
2023-01-28T00:00:15.164Z,1022.48
2023-01-28T00:01:15.153Z,1022.54
2023-01-28T00:02:15.140Z,1022.55
2023-01-28T00:03:15.125Z,1022.52
2023-01-28T00:04:15.116Z,1022.51
2023-01-28T00:05:15.373Z,1022.56
2023-01-28T00:06:15.116Z,1022.52
2023-01-28T00:07:15.087Z,1022.58
2023-01-28T00:08:15.072Z,1022.59
2023-01-28T00:09:15.161Z,1022.65
2023-01-28T00:10:15.058Z,1022.62
2023-01-28T00:11:15.053Z,1022.65
2023-01-28T00:12:15.031Z,1022.64
2023-01-28T00:13:15.045Z,1022.69
2023-01-28T00:14:15.008Z,1022.63
2023-01-28T00:15:15.430Z,1022.71
2023-01-28T00:16:15.034Z,1022.72
2023-01-28T00:17:14.975Z,1022.70
2023-01-28T00:18:14.969Z,1022.67
2023-01-28T00:19:14.956Z,1022.63
2023-01-28T00:20:14.938Z,1022.62
2023-01-28T00:21:14.942Z,1022.68
2023-01-28T00:22:14.917Z,1022.67
2023-01-28T00:23:14.911Z,1022.62
2023-01-28T00:24:14.979Z,1022.60
2023-01-28T00:25:15.194Z,1022.62
2023-01-28T00:26:14.875Z,1022.60
2023-01-28T00:27:14.879Z,1022.60
2023-01-28T00:28:14.852Z,1022.56
2023-01-28T00:29:14.851Z,1022.53
2023-01-28T00:30:14.831Z,1022.50
2023-01-28T00:31:14.823Z,1022.54
2023-01-28T00:32:14.821Z,1022.52
2023-01-28T00:33:14.803Z,1022.55
2023-01-28T00:34:14.791Z,1022.53
2023-01-28T00:35:15.063Z,1022.56
2023-01-28T00:36:14.805Z,1022.53
2023-01-28T00:37:14.769Z,1022.54
2023-01-28T00:38:14.742Z,1022.56
2023-01-28T00:39:14.738Z,1022.58
2023-01-28T00:40:14.723Z,1022.62
2023-01-28T00:41:14.715Z,1022.64
2023-01-28T00:42:14.732Z,1022.65
2023-01-28T00:43:14.693Z,1022.65
2023-01-28T00:44:14.675Z,1022.67
2023-01-28T00:45:15.117Z,1022.70
2023-01-28T00:46:14.731Z,1022.74
2023-01-28T00:47:14.671Z,1022.67
2023-01-28T00:48:14.639Z,1022.81
2023-01-28T00:49:14.647Z,1022.73
2023-01-28T00:50:14.617Z,1022.78
2023-01-28T00:51:14.631Z,1022.78
2023-01-28T00:52:14.602Z,1022.76
2023-01-28T00:53:14.591Z,1022.72
2023-01-28T00:54:14.571Z,1022.69
2023-01-28T00:55:15.076Z,1022.68
2023-01-28T00:56:14.547Z,1022.68
2023-01-28T00:57:14.550Z,1022.66
2023-01-28T00:58:14.525Z,1022.66
2023-01-28T00:59:14.518Z,1022.63
2023-01-28T01:00:14.515Z,1022.60
2023-01-28T01:01:14.605Z,1022.61
2023-01-28T01:02:14.584Z,1022.63
2023-01-28T01:03:14.487Z,1022.70
2023-01-28T01:04:14.461Z,1022.64
2023-01-28T01:05:14.895Z,1022.61
2023-01-28T01:06:14.457Z,1022.70
2023-01-28T01:07:14.457Z,1022.74
2023-01-28T01:08:14.416Z,1022.72
2023-01-28T01:09:14.409Z,1022.71
2023-01-28T01:10:14.433Z,1022.75
2023-01-28T01:11:14.391Z,1022.78
2023-01-28T01:12:14.384Z,1022.77
2023-01-28T01:13:14.385Z,1022.81
2023-01-28T01:14:14.394Z,1022.77
2023-01-28T01:15:14.794Z,1022.76
2023-01-28T01:16:14.383Z,1022.72
2023-01-28T01:17:14.334Z,1022.76
2023-01-28T01:18:14.307Z,1022.72
2023-01-28T01:19:14.311Z,1022.68
2023-01-28T01:20:14.290Z,1022.71
2023-01-28T01:21:14.281Z,1022.72
2023-01-28T01:22:14.273Z,1022.72
2023-01-28T01:23:14.269Z,1022.72
2023-01-28T01:24:14.302Z,1022.71
2023-01-28T01:25:14.486Z,1022.73
2023-01-28T01:26:14.222Z,1022.74
2023-01-28T01:27:14.222Z,1022.76
2023-01-28T01:28:14.202Z,1022.72
2023-01-28T01:29:14.194Z,1022.74
2023-01-28T01:30:14.189Z,1022.72
2023-01-28T01:31:14.224Z,1022.74
2023-01-28T01:32:14.176Z,1022.78
2023-01-28T01:33:14.150Z,1022.78
2023-01-28T01:34:14.143Z,1022.87
2023-01-28T01:35:14.842Z,1022.83
2023-01-28T01:36:14.121Z,1022.81
2023-01-28T01:37:14.114Z,1022.78
2023-01-28T01:38:14.243Z,1022.80
2023-01-28T01:39:14.085Z,1022.82
2023-01-28T01:40:14.084Z,1022.80
2023-01-28T01:41:14.067Z,1022.79
2023-01-28T01:42:14.061Z,1022.82
2023-01-28T01:43:14.042Z,1022.81
2023-01-28T01:44:14.027Z,1022.83
2023-01-28T01:45:14.468Z,1022.85
2023-01-28T01:46:14.047Z,1022.82
2023-01-28T01:47:14.026Z,1022.81
2023-01-28T01:48:13.992Z,1022.81
2023-01-28T01:49:13.975Z,1022.87
2023-01-28T01:50:13.973Z,1022.81
2023-01-28T01:51:13.957Z,1022.84
2023-01-28T01:52:13.953Z,1022.82
2023-01-28T01:53:13.940Z,1022.81
2023-01-28T01:54:13.919Z,1022.84
2023-01-28T01:55:14.181Z,1022.82
2023-01-28T01:56:13.896Z,1022.81
2023-01-28T01:57:13.898Z,1022.86
2023-01-28T01:58:13.877Z,1022.86
2023-01-28T01:59:13.881Z,1022.89
2023-01-28T02:00:13.855Z,1022.88
2023-01-28T02:01:13.845Z,1022.80
2023-01-28T02:02:13.848Z,1022.81
2023-01-28T02:03:13.838Z,1022.82
2023-01-28T02:04:13.815Z,1022.78
2023-01-28T02:05:14.146Z,1022.80
2023-01-28T02:06:13.788Z,1022.82
2023-01-28T02:07:13.841Z,1022.84
2023-01-28T02:08:13.771Z,1022.82
2023-01-28T02:09:13.759Z,1022.83
2023-01-28T02:10:13.747Z,1022.85
2023-01-28T02:11:13.736Z,1022.83
2023-01-28T02:12:13.759Z,1022.91
2023-01-28T02:13:13.718Z,1022.90
2023-01-28T02:14:22.449Z,1022.89
2023-01-28T02:15:14.089Z,1022.89
2023-01-28T02:16:13.689Z,1022.89
2023-01-28T02:17:13.697Z,1022.93
2023-01-28T02:18:13.656Z,1022.92
2023-01-28T02:19:13.646Z,1022.94
2023-01-28T02:20:13.646Z,1022.92
2023-01-28T02:21:13.628Z,1022.93
2023-01-28T02:22:13.631Z,1022.91
2023-01-28T02:23:13.604Z,1022.94
2023-01-28T02:24:13.641Z,1022.87
2023-01-28T02:25:13.922Z,1022.90
2023-01-28T02:26:13.580Z,1022.91
2023-01-28T02:27:13.580Z,1022.93
2023-01-28T02:28:13.558Z,1022.90
2023-01-28T02:29:13.539Z,1022.91
2023-01-28T02:30:13.531Z,1022.91
2023-01-28T02:31:13.646Z,1022.92
2023-01-28T02:32:13.510Z,1022.92
2023-01-28T02:33:13.504Z,1022.89
2023-01-28T02:34:13.493Z,1022.94
2023-01-28T02:35:13.952Z,1022.96
2023-01-28T02:36:13.467Z,1022.96
2023-01-28T02:37:13.451Z,1022.92
2023-01-28T02:38:13.457Z,1022.92
2023-01-28T02:39:13.444Z,1022.95
2023-01-28T02:40:13.422Z,1022.88
2023-01-28T02:41:13.408Z,1022.88
2023-01-28T02:42:13.403Z,1022.87
2023-01-28T02:43:13.399Z,1022.88
2023-01-28T02:44:13.382Z,1022.87
2023-01-28T02:45:13.739Z,1022.86
2023-01-28T02:46:13.389Z,1022.82
2023-01-28T02:47:13.346Z,1022.83
2023-01-28T02:48:13.344Z,1022.82
2023-01-28T02:49:13.322Z,1022.83
2023-01-28T02:50:13.320Z,1022.83
2023-01-28T02:51:13.304Z,1022.84
2023-01-28T02:52:13.298Z,1022.86
2023-01-28T02:53:13.293Z,1022.87
2023-01-28T02:54:13.277Z,1022.87
2023-01-28T02:55:13.541Z,1022.83
2023-01-28T02:56:13.250Z,1022.86
2023-01-28T02:57:13.237Z,1022.86
2023-01-28T02:58:13.239Z,1022.87
2023-01-28T02:59:13.215Z,1022.89
2023-01-28T03:00:13.206Z,1022.88
2023-01-28T03:01:13.226Z,1022.88
2023-01-28T03:02:13.289Z,1022.84
2023-01-28T03:03:13.181Z,1022.86
2023-01-28T03:04:13.162Z,1022.84
2023-01-28T03:05:13.490Z,1022.81
2023-01-28T03:06:13.146Z,1022.79
2023-01-28T03:07:13.126Z,1022.78
2023-01-28T03:08:13.131Z,1022.84
2023-01-28T03:09:13.105Z,1022.82
2023-01-28T03:10:15.149Z,1022.81
2023-01-28T03:11:13.085Z,1022.84
2023-01-28T03:12:13.083Z,1022.83
2023-01-28T03:13:13.069Z,1022.85
2023-01-28T03:14:13.051Z,1022.85
2023-01-28T03:15:13.497Z,1022.86
2023-01-28T03:16:13.087Z,1022.85
2023-01-28T03:17:13.024Z,1022.82
2023-01-28T03:18:13.019Z,1022.83
2023-01-28T03:19:13.019Z,1022.85
2023-01-28T03:20:12.998Z,1022.85
2023-01-28T03:21:12.990Z,1022.87
2023-01-28T03:22:13.010Z,1022.84
2023-01-28T03:23:12.966Z,1022.85
2023-01-28T03:24:12.977Z,1022.86
2023-01-28T03:25:13.356Z,1022.85
2023-01-28T03:26:12.923Z,1022.87
2023-01-28T03:27:12.914Z,1022.88
2023-01-28T03:28:12.919Z,1022.86
2023-01-28T03:29:12.891Z,1022.91
2023-01-28T03:30:12.875Z,1022.87
2023-01-28T03:31:12.875Z,1022.92
2023-01-28T03:32:12.897Z,1022.89
2023-01-28T03:33:12.863Z,1022.88
2023-01-28T03:34:12.835Z,1022.90
2023-01-28T03:35:13.409Z,1022.92
2023-01-28T03:36:12.810Z,1022.90
2023-01-28T03:37:12.807Z,1022.90
2023-01-28T03:38:12.830Z,1022.89
2023-01-28T03:39:12.863Z,1022.88
2023-01-28T03:40:12.767Z,1022.89
2023-01-28T03:41:12.765Z,1022.89
2023-01-28T03:42:12.770Z,1022.84
2023-01-28T03:43:12.754Z,1022.80
2023-01-28T03:44:12.728Z,1022.81
2023-01-28T03:45:13.319Z,1022.82
2023-01-28T03:46:12.735Z,1022.85
2023-01-28T03:47:12.711Z,1022.86
2023-01-28T03:48:12.698Z,1022.90
2023-01-28T03:49:12.677Z,1022.89
2023-01-28T03:50:12.666Z,1022.90
2023-01-28T03:51:12.655Z,1022.85
2023-01-28T03:52:12.702Z,1022.86
2023-01-28T03:53:15.961Z,1022.91
2023-01-28T03:54:12.617Z,1022.97
2023-01-28T03:55:13.053Z,1022.96
2023-01-28T03:56:12.596Z,1022.92
2023-01-28T03:57:12.587Z,1022.87
2023-01-28T03:58:12.590Z,1022.88
2023-01-28T03:59:12.570Z,1022.87
2023-01-28T04:00:12.555Z,1022.87
2023-01-28T04:01:12.548Z,1022.89
2023-01-28T04:02:12.540Z,1022.90
2023-01-28T04:03:12.613Z,1022.97
2023-01-28T04:04:12.536Z,1022.97
2023-01-28T04:05:12.988Z,1022.99
2023-01-28T04:06:12.509Z,1022.95
2023-01-28T04:07:12.483Z,1022.96
2023-01-28T04:08:12.509Z,1023.01
2023-01-28T04:09:12.457Z,1023.01
2023-01-28T04:10:12.445Z,1023.02
2023-01-28T04:11:12.438Z,1023.03
2023-01-28T04:12:12.441Z,1023.07
2023-01-28T04:13:13.522Z,1023.04
2023-01-28T04:14:12.411Z,1023.06
2023-01-28T04:15:12.796Z,1023.11
2023-01-28T04:16:12.406Z,1023.07
2023-01-28T04:17:12.370Z,1023.12
2023-01-28T04:18:12.358Z,1023.11
2023-01-28T04:19:12.375Z,1023.15
2023-01-28T04:20:12.341Z,1023.20
2023-01-28T04:21:12.341Z,1023.17
2023-01-28T04:22:12.321Z,1023.18
2023-01-28T04:23:12.309Z,1023.18
2023-01-28T04:24:12.369Z,1023.14
2023-01-28T04:25:12.787Z,1023.13
2023-01-28T04:26:12.308Z,1023.09
2023-01-28T04:27:12.264Z,1023.11
2023-01-28T04:28:12.249Z,1023.09
2023-01-28T04:29:12.253Z,1023.10
2023-01-28T04:30:12.229Z,1023.12
2023-01-28T04:31:12.243Z,1023.12
2023-01-28T04:32:12.207Z,1023.13
2023-01-28T04:33:12.199Z,1023.15
2023-01-28T04:34:12.195Z,1023.21
2023-01-28T04:35:12.174Z,1023.22
2023-01-28T04:36:12.197Z,1023.25
2023-01-28T04:37:12.162Z,1023.24
2023-01-28T04:38:12.142Z,1023.30
2023-01-28T04:39:12.147Z,1023.30
2023-01-28T04:40:12.137Z,1023.31
2023-01-28T04:41:12.116Z,1023.23
2023-01-28T04:42:12.098Z,1023.21
2023-01-28T04:43:12.100Z,1023.21
2023-01-28T04:44:12.093Z,1023.21
2023-01-28T04:45:12.069Z,1023.19
2023-01-28T04:46:12.054Z,1023.14
2023-01-28T04:47:12.047Z,1023.14
2023-01-28T04:48:12.036Z,1023.17
2023-01-28T04:49:12.033Z,1023.14
2023-01-28T04:50:12.008Z,1023.17
2023-01-28T04:51:12.003Z,1023.17
2023-01-28T04:52:11.992Z,1023.14
2023-01-28T04:53:11.994Z,1023.14
2023-01-28T04:54:11.986Z,1023.11
2023-01-28T04:55:11.981Z,1023.12
2023-01-28T04:56:11.945Z,1023.02
2023-01-28T04:57:11.941Z,1023.00
2023-01-28T04:58:11.927Z,1022.99
2023-01-28T04:59:11.928Z,1023.00
2023-01-28T05:00:11.905Z,1023.05
2023-01-28T05:01:11.934Z,1023.01
2023-01-28T05:02:11.898Z,1023.00
2023-01-28T05:03:11.874Z,1023.00
2023-01-28T05:04:11.873Z,1023.02
2023-01-28T05:05:11.854Z,1023.04
2023-01-28T05:06:11.839Z,1023.05
2023-01-28T05:07:11.837Z,1023.03
2023-01-28T05:08:11.818Z,1023.02
2023-01-28T05:09:11.831Z,1023.02
2023-01-28T05:10:11.810Z,1023.03
2023-01-28T05:11:11.794Z,1022.97
2023-01-28T05:12:11.774Z,1022.98
2023-01-28T05:13:11.768Z,1022.99
2023-01-28T05:14:11.764Z,1023.00
2023-01-28T05:15:11.759Z,1023.02
2023-01-28T05:16:11.732Z,1023.03
2023-01-28T05:17:11.784Z,1022.99
2023-01-28T05:18:11.710Z,1023.00
2023-01-28T05:19:11.715Z,1022.99
2023-01-28T05:20:11.699Z,1022.99
2023-01-28T05:21:11.680Z,1023.05
2023-01-28T05:22:11.674Z,1023.08
2023-01-28T05:23:11.657Z,1023.09
2023-01-28T05:24:11.675Z,1023.08
2023-01-28T05:25:11.634Z,1023.14
2023-01-28T05:26:11.635Z,1023.16
2023-01-28T05:27:11.609Z,1023.12
2023-01-28T05:28:11.600Z,1023.15
2023-01-28T05:29:11.615Z,1023.21
2023-01-28T05:30:11.581Z,1023.14
2023-01-28T05:31:11.572Z,1023.12
2023-01-28T05:32:11.567Z,1023.12
2023-01-28T05:33:11.556Z,1023.17
2023-01-28T05:34:11.543Z,1023.24
2023-01-28T05:35:11.536Z,1023.25
2023-01-28T05:36:11.529Z,1023.27
2023-01-28T05:37:11.520Z,1023.22
2023-01-28T05:38:13.637Z,1023.32
2023-01-28T05:39:11.526Z,1023.30
2023-01-28T05:40:11.483Z,1023.29
2023-01-28T05:41:11.465Z,1023.26
2023-01-28T05:42:11.454Z,1023.29
2023-01-28T05:43:11.441Z,1023.36
2023-01-28T05:44:11.432Z,1023.30
2023-01-28T05:45:11.452Z,1023.32
2023-01-28T05:46:11.403Z,1023.31
2023-01-28T05:47:11.397Z,1023.30
2023-01-28T05:48:11.391Z,1023.31
2023-01-28T05:49:11.382Z,1023.26
2023-01-28T05:50:11.381Z,1023.29
2023-01-28T05:51:11.366Z,1023.22
2023-01-28T05:52:11.342Z,1023.25
2023-01-28T05:53:11.343Z,1023.22
2023-01-28T05:54:11.351Z,1023.19
2023-01-28T05:55:11.326Z,1023.15
2023-01-28T05:56:11.336Z,1023.17
2023-01-28T05:57:11.299Z,1023.16
2023-01-28T05:58:11.277Z,1023.11
2023-01-28T05:59:11.268Z,1023.20
2023-01-28T06:00:11.260Z,1023.17
2023-01-28T06:01:11.274Z,1023.19
2023-01-28T06:02:11.369Z,1023.13
2023-01-28T06:03:11.225Z,1023.12
2023-01-28T06:04:11.223Z,1023.09
2023-01-28T06:05:11.299Z,1023.14
2023-01-28T06:06:11.191Z,1023.14
2023-01-28T06:07:11.962Z,1023.13
2023-01-28T06:08:11.172Z,1023.11
2023-01-28T06:09:11.162Z,1023.19
2023-01-28T06:10:11.155Z,1023.19
2023-01-28T06:11:11.169Z,1023.22
2023-01-28T06:12:11.180Z,1023.23
2023-01-28T06:13:11.119Z,1023.19
2023-01-28T06:14:11.217Z,1023.21
2023-01-28T06:15:11.211Z,1023.25
2023-01-28T06:16:11.314Z,1023.23
2023-01-28T06:17:11.075Z,1023.22
2023-01-28T06:18:11.082Z,1023.25
2023-01-28T06:19:11.052Z,1023.16
2023-01-28T06:20:11.053Z,1023.23
2023-01-28T06:21:11.043Z,1023.18
2023-01-28T06:22:11.034Z,1023.18
2023-01-28T06:23:11.004Z,1023.19
2023-01-28T06:24:11.143Z,1023.18
2023-01-28T06:25:11.005Z,1023.22
2023-01-28T06:26:10.977Z,1023.17
2023-01-28T06:27:10.986Z,1023.15
2023-01-28T06:28:10.966Z,1023.15
2023-01-28T06:29:10.945Z,1023.12
2023-01-28T06:30:10.952Z,1023.17
2023-01-28T06:31:11.037Z,1023.16
2023-01-28T06:32:10.962Z,1023.17
2023-01-28T06:33:10.910Z,1023.20
2023-01-28T06:34:10.896Z,1023.18
2023-01-28T06:35:10.899Z,1023.16
2023-01-28T06:36:10.873Z,1023.14
2023-01-28T06:37:10.861Z,1023.18
2023-01-28T06:38:10.849Z,1023.16
2023-01-28T06:39:10.842Z,1023.11
2023-01-28T06:40:10.887Z,1023.12
2023-01-28T06:41:10.832Z,1023.12
2023-01-28T06:42:10.802Z,1023.13
2023-01-28T06:43:10.795Z,1023.11
2023-01-28T06:44:10.781Z,1023.11
2023-01-28T06:45:10.782Z,1023.09
2023-01-28T06:46:10.817Z,1023.09
2023-01-28T06:47:10.776Z,1023.12
2023-01-28T06:48:10.744Z,1023.16
2023-01-28T06:49:10.729Z,1023.14
2023-01-28T06:50:10.727Z,1023.13
2023-01-28T06:51:10.713Z,1023.17
2023-01-28T06:52:10.700Z,1023.13
2023-01-28T06:53:10.688Z,1023.15
2023-01-28T06:54:10.675Z,1023.16
2023-01-28T06:55:10.689Z,1023.13
2023-01-28T06:56:10.662Z,1023.16
2023-01-28T06:57:10.645Z,1023.11
2023-01-28T06:58:10.640Z,1023.14
2023-01-28T06:59:10.629Z,1023.19
2023-01-28T07:00:10.632Z,1023.27
2023-01-28T07:01:10.611Z,1023.32
2023-01-28T07:02:10.585Z,1023.33
2023-01-28T07:03:10.651Z,1023.30
2023-01-28T07:04:10.567Z,1023.29
2023-01-28T07:05:10.581Z,1023.25
2023-01-28T07:06:10.543Z,1023.22
2023-01-28T07:07:10.544Z,1023.27
2023-01-28T07:08:10.527Z,1023.31
2023-01-28T07:09:10.530Z,1023.37
2023-01-28T07:10:10.519Z,1023.37
2023-01-28T07:11:10.507Z,1023.41
2023-01-28T07:12:10.481Z,1023.40
2023-01-28T07:13:10.476Z,1023.41
2023-01-28T07:14:10.459Z,1023.42
2023-01-28T07:15:10.456Z,1023.43
2023-01-28T07:16:10.460Z,1023.47
2023-01-28T07:17:10.459Z,1023.43
2023-01-28T07:18:10.420Z,1023.39
2023-01-28T07:19:10.554Z,1023.42
2023-01-28T07:20:10.398Z,1023.45
2023-01-28T07:21:10.399Z,1023.41
2023-01-28T07:22:10.379Z,1023.47
2023-01-28T07:23:10.372Z,1023.46
2023-01-28T07:24:10.384Z,1023.40
2023-01-28T07:25:10.355Z,1023.47
2023-01-28T07:26:10.349Z,1023.44
2023-01-28T07:27:10.348Z,1023.49
2023-01-28T07:28:10.333Z,1023.49
2023-01-28T07:29:10.300Z,1023.51
2023-01-28T07:30:10.310Z,1023.48
2023-01-28T07:31:10.384Z,1023.49
2023-01-28T07:32:10.313Z,1023.48
2023-01-28T07:33:10.273Z,1023.48
2023-01-28T07:34:10.258Z,1023.47
2023-01-28T07:35:10.242Z,1023.46
2023-01-28T07:36:10.241Z,1023.49
2023-01-28T07:37:10.221Z,1023.54
2023-01-28T07:38:10.205Z,1023.48
2023-01-28T07:39:10.195Z,1023.42
2023-01-28T07:40:10.185Z,1023.37
2023-01-28T07:41:10.189Z,1023.36
2023-01-28T07:42:10.171Z,1023.39
2023-01-28T07:43:10.177Z,1023.41
2023-01-28T07:44:10.136Z,1023.47
2023-01-28T07:45:10.132Z,1023.48
2023-01-28T07:46:10.131Z,1023.44
2023-01-28T07:47:10.171Z,1023.44
2023-01-28T07:48:10.100Z,1023.43
2023-01-28T07:49:10.087Z,1023.38
2023-01-28T07:50:10.073Z,1023.42
2023-01-28T07:51:10.073Z,1023.35
2023-01-28T07:52:10.055Z,1023.43
2023-01-28T07:53:10.046Z,1023.46
2023-01-28T07:54:10.030Z,1023.49
2023-01-28T07:55:10.024Z,1023.53
2023-01-28T07:56:10.017Z,1023.55
2023-01-28T07:57:10.026Z,1023.56
2023-01-28T07:58:09.990Z,1023.58
2023-01-28T07:59:09.979Z,1023.58
2023-01-28T08:00:09.966Z,1023.59
2023-01-28T08:01:10.038Z,1023.61
2023-01-28T08:02:09.944Z,1023.63
2023-01-28T08:03:09.936Z,1023.66
2023-01-28T08:04:09.966Z,1023.65
2023-01-28T08:05:10.016Z,1023.67
2023-01-28T08:06:09.908Z,1023.70
2023-01-28T08:07:09.893Z,1023.69
2023-01-28T08:08:09.879Z,1023.65
2023-01-28T08:09:09.870Z,1023.70
2023-01-28T08:10:09.861Z,1023.71
2023-01-28T08:11:09.860Z,1023.79
2023-01-28T08:12:09.837Z,1023.79
2023-01-28T08:13:09.828Z,1023.82
2023-01-28T08:14:09.815Z,1023.83
2023-01-28T08:15:09.813Z,1023.77
2023-01-28T08:16:09.847Z,1023.81
2023-01-28T08:17:09.788Z,1023.80
2023-01-28T08:18:09.770Z,1023.82
2023-01-28T08:19:09.793Z,1023.86
2023-01-28T08:20:09.762Z,1023.87
2023-01-28T08:21:09.797Z,1023.88
2023-01-28T08:22:09.732Z,1023.90
2023-01-28T08:23:09.764Z,1023.91
2023-01-28T08:24:09.765Z,1023.90
2023-01-28T08:25:09.700Z,1023.95
2023-01-28T08:26:09.707Z,1024.01
2023-01-28T08:27:09.677Z,1024.01
2023-01-28T08:28:09.689Z,1024.08
2023-01-28T08:29:09.657Z,1024.11
2023-01-28T08:30:09.641Z,1024.13
2023-01-28T08:31:09.706Z,1024.19
2023-01-28T08:32:09.626Z,1024.07
2023-01-28T08:33:09.633Z,1024.09
2023-01-28T08:34:09.598Z,1024.06
2023-01-28T08:35:09.593Z,1024.10
2023-01-28T08:36:09.585Z,1024.16
2023-01-28T08:37:09.573Z,1024.20
2023-01-28T08:38:09.561Z,1024.21
2023-01-28T08:39:09.550Z,1024.23
2023-01-28T08:40:09.539Z,1024.25
2023-01-28T08:41:09.540Z,1024.28
2023-01-28T08:42:09.519Z,1024.27
2023-01-28T08:43:09.506Z,1024.25
2023-01-28T08:44:09.500Z,1024.25
2023-01-28T08:45:09.485Z,1024.27
2023-01-28T08:46:09.521Z,1024.24
2023-01-28T08:47:09.463Z,1024.22
2023-01-28T08:48:09.484Z,1024.25
2023-01-28T08:49:09.439Z,1024.29
2023-01-28T08:50:09.425Z,1024.32
2023-01-28T08:51:09.430Z,1024.35
2023-01-28T08:52:09.411Z,1024.39
2023-01-28T08:53:09.398Z,1024.42
2023-01-28T08:54:09.388Z,1024.46
2023-01-28T08:55:09.377Z,1024.48
2023-01-28T08:56:09.377Z,1024.45
2023-01-28T08:57:09.355Z,1024.46
2023-01-28T08:58:09.351Z,1024.45
2023-01-28T08:59:09.335Z,1024.44
2023-01-28T09:00:09.317Z,1024.45
2023-01-28T09:01:09.321Z,1024.46
2023-01-28T09:02:19.104Z,1024.53
2023-01-28T09:03:09.297Z,1024.53
2023-01-28T09:04:09.291Z,1024.58
2023-01-28T09:05:09.271Z,1024.51
2023-01-28T09:06:09.270Z,1024.53
2023-01-28T09:07:09.255Z,1024.54
2023-01-28T09:08:09.234Z,1024.56
2023-01-28T09:09:09.233Z,1024.57
2023-01-28T09:10:09.215Z,1024.54
2023-01-28T09:11:09.220Z,1024.48
2023-01-28T09:12:09.191Z,1024.47
2023-01-28T09:13:09.187Z,1024.51
2023-01-28T09:14:09.172Z,1024.52
2023-01-28T09:15:09.154Z,1024.57
2023-01-28T09:16:09.220Z,1024.64
2023-01-28T09:17:09.136Z,1024.64
2023-01-28T09:18:09.131Z,1024.64
2023-01-28T09:19:09.116Z,1024.66
2023-01-28T09:20:09.144Z,1024.69
2023-01-28T09:21:09.098Z,1024.67
2023-01-28T09:22:09.091Z,1024.71
2023-01-28T09:23:09.099Z,1024.65
2023-01-28T09:24:09.116Z,1024.66
2023-01-28T09:25:09.050Z,1024.73
2023-01-28T09:26:09.056Z,1024.74
2023-01-28T09:27:09.029Z,1024.73
2023-01-28T09:28:09.019Z,1024.79
2023-01-28T09:29:09.004Z,1024.75
2023-01-28T09:30:08.996Z,1024.75
2023-01-28T09:31:09.113Z,1024.82
2023-01-28T09:32:08.975Z,1024.80
2023-01-28T09:33:08.962Z,1024.86
2023-01-28T09:34:08.959Z,1024.83
2023-01-28T09:35:08.939Z,1024.79
2023-01-28T09:36:08.941Z,1024.73
2023-01-28T09:37:08.918Z,1024.72
2023-01-28T09:38:08.935Z,1024.77
2023-01-28T09:39:08.897Z,1024.79
2023-01-28T09:40:08.890Z,1024.80
2023-01-28T09:41:08.886Z,1024.81
2023-01-28T09:42:08.871Z,1024.83
2023-01-28T09:43:08.865Z,1024.80
2023-01-28T09:44:08.852Z,1024.80
2023-01-28T09:45:08.837Z,1024.77
2023-01-28T09:46:08.867Z,1024.75
2023-01-28T09:47:08.843Z,1024.74
2023-01-28T09:48:08.806Z,1024.67
2023-01-28T09:49:08.793Z,1024.70
2023-01-28T09:50:08.780Z,1024.73
2023-01-28T09:51:08.787Z,1024.78
2023-01-28T09:52:08.786Z,1024.76
2023-01-28T09:53:08.746Z,1024.72
2023-01-28T09:54:08.740Z,1024.74
2023-01-28T09:55:08.738Z,1024.70
2023-01-28T09:56:08.733Z,1024.67
2023-01-28T09:57:08.698Z,1024.69
2023-01-28T09:58:08.695Z,1024.70
2023-01-28T09:59:08.678Z,1024.69
2023-01-28T10:00:08.679Z,1024.71
2023-01-28T10:01:08.702Z,1024.68
2023-01-28T10:02:08.651Z,1024.66
2023-01-28T10:03:08.639Z,1024.63
2023-01-28T10:04:08.689Z,1024.65
2023-01-28T10:05:08.620Z,1024.74
2023-01-28T10:06:08.609Z,1024.75
2023-01-28T10:07:08.607Z,1024.75
2023-01-28T10:08:08.586Z,1024.78
2023-01-28T10:09:08.571Z,1024.77
2023-01-28T10:10:08.563Z,1024.75
2023-01-28T10:11:08.553Z,1024.78
2023-01-28T10:12:08.577Z,1024.79
2023-01-28T10:13:09.468Z,1024.79
2023-01-28T10:14:08.520Z,1024.80
2023-01-28T10:15:08.507Z,1024.78
2023-01-28T10:16:08.547Z,1024.82
2023-01-28T10:17:08.589Z,1024.78
2023-01-28T10:18:17.169Z,1024.74
2023-01-28T10:19:08.470Z,1024.77
2023-01-28T10:20:08.461Z,1024.73
2023-01-28T10:21:08.444Z,1024.75
2023-01-28T10:22:08.446Z,1024.78
2023-01-28T10:23:08.419Z,1024.86
2023-01-28T10:24:08.439Z,1024.92
2023-01-28T10:25:08.399Z,1024.94
2023-01-28T10:26:08.390Z,1024.86
2023-01-28T10:27:08.389Z,1024.92
2023-01-28T10:28:08.368Z,1024.87
2023-01-28T10:29:08.353Z,1024.88
2023-01-28T10:30:08.345Z,1024.85
2023-01-28T10:31:08.429Z,1024.98
2023-01-28T10:32:08.362Z,1024.98
2023-01-28T10:33:08.317Z,1025.01
2023-01-28T10:34:08.304Z,1024.98
2023-01-28T10:35:08.288Z,1024.91
2023-01-28T10:36:08.287Z,1024.93
2023-01-28T10:37:08.281Z,1024.87
2023-01-28T10:38:08.264Z,1024.91
2023-01-28T10:39:08.245Z,1024.98
2023-01-28T10:40:08.243Z,1024.94
2023-01-28T10:41:09.032Z,1024.95
2023-01-28T10:42:08.228Z,1025.00
2023-01-28T10:43:08.212Z,1025.02
2023-01-28T10:44:08.194Z,1025.01
2023-01-28T10:45:08.177Z,1025.07
2023-01-28T10:46:08.207Z,1025.08
2023-01-28T10:47:08.168Z,1025.05
2023-01-28T10:48:08.157Z,1025.00
2023-01-28T10:49:08.144Z,1024.96
2023-01-28T10:50:08.126Z,1024.95
2023-01-28T10:51:08.119Z,1024.92
2023-01-28T10:52:08.112Z,1024.91
2023-01-28T10:53:08.099Z,1024.96
2023-01-28T10:54:08.083Z,1024.97
2023-01-28T10:55:08.079Z,1024.98
2023-01-28T10:56:08.060Z,1024.95
2023-01-28T10:57:08.071Z,1024.96
2023-01-28T10:58:08.059Z,1025.00
2023-01-28T10:59:08.037Z,1025.05
2023-01-28T11:00:08.017Z,1024.99
2023-01-28T11:01:08.060Z,1024.97
2023-01-28T11:02:08.060Z,1024.96
2023-01-28T11:03:07.988Z,1024.90
2023-01-28T11:04:07.976Z,1024.93
2023-01-28T11:05:07.999Z,1024.91
2023-01-28T11:06:07.953Z,1024.83
2023-01-28T11:07:07.954Z,1024.85
2023-01-28T11:08:07.929Z,1024.83
2023-01-28T11:09:07.922Z,1024.84
2023-01-28T11:10:07.907Z,1024.82
2023-01-28T11:11:07.904Z,1024.72
2023-01-28T11:12:07.950Z,1024.64
2023-01-28T11:13:07.877Z,1024.58
2023-01-28T11:14:07.863Z,1024.63
2023-01-28T11:15:07.918Z,1024.63
2023-01-28T11:16:07.842Z,1024.60
2023-01-28T11:17:07.849Z,1024.57
2023-01-28T11:18:08.145Z,1024.55
2023-01-28T11:19:07.835Z,1024.60
2023-01-28T11:20:07.814Z,1024.58
2023-01-28T11:21:07.794Z,1024.59
2023-01-28T11:22:07.787Z,1024.56
2023-01-28T11:23:07.779Z,1024.59
2023-01-28T11:24:07.800Z,1024.55
2023-01-28T11:25:07.751Z,1024.59
2023-01-28T11:26:07.732Z,1024.55
2023-01-28T11:27:07.736Z,1024.53
2023-01-28T11:28:07.710Z,1024.46
2023-01-28T11:29:07.706Z,1024.54
2023-01-28T11:30:07.690Z,1024.51
2023-01-28T11:31:07.733Z,1024.53
2023-01-28T11:32:07.684Z,1024.56
2023-01-28T11:33:07.661Z,1024.59
2023-01-28T11:34:07.651Z,1024.57
2023-01-28T11:35:07.645Z,1024.55
2023-01-28T11:36:07.630Z,1024.49
2023-01-28T11:37:07.620Z,1024.46
2023-01-28T11:38:07.616Z,1024.36
2023-01-28T11:39:07.614Z,1024.42
2023-01-28T11:40:07.599Z,1024.38
2023-01-28T11:41:07.576Z,1024.38
2023-01-28T11:42:07.561Z,1024.40
2023-01-28T11:43:07.567Z,1024.34
2023-01-28T11:44:07.539Z,1024.31
2023-01-28T11:45:07.560Z,1024.29
2023-01-28T11:46:07.580Z,1024.26
2023-01-28T11:47:07.529Z,1024.23
2023-01-28T11:48:07.508Z,1024.20
2023-01-28T11:49:07.515Z,1024.25
2023-01-28T11:50:07.511Z,1024.17
2023-01-28T11:51:07.469Z,1024.17
2023-01-28T11:52:07.459Z,1024.17
2023-01-28T11:53:07.983Z,1024.13
2023-01-28T11:54:07.435Z,1024.21
2023-01-28T11:55:07.427Z,1024.21
2023-01-28T11:56:07.412Z,1024.17
2023-01-28T11:57:07.407Z,1024.16
2023-01-28T11:58:07.401Z,1024.23
2023-01-28T11:59:07.384Z,1024.23
2023-01-28T12:00:07.371Z,1024.29
2023-01-28T12:01:07.361Z,1024.28
2023-01-28T12:02:07.346Z,1024.29
2023-01-28T12:03:07.352Z,1024.23
2023-01-28T12:04:07.330Z,1024.21
2023-01-28T12:05:07.320Z,1024.23